createdAt,value
2017-01-23T00:00:28.110Z,0
2017-01-23T00:01:37.101Z,0
2017-01-23T00:02:46.088Z,0
2017-01-23T00:03:55.088Z,0
2017-01-23T00:05:04.084Z,0
2017-01-23T00:06:13.073Z,0
2017-01-23T00:07:22.061Z,0
2017-01-23T00:08:31.035Z,0
2017-01-23T00:09:40.026Z,0
2017-01-23T00:10:49.008Z,0
2017-01-23T00:11:58.000Z,0
2017-01-23T00:13:06.996Z,0
2017-01-23T00:14:15.976Z,0
2017-01-23T00:15:24.956Z,0
2017-01-23T00:16:33.945Z,0
2017-01-23T00:17:42.933Z,0
2017-01-23T00:18:51.931Z,0
2017-01-23T00:20:00.907Z,0
2017-01-23T00:21:09.894Z,0
2017-01-23T00:22:18.874Z,0
2017-01-23T00:23:27.867Z,0
2017-01-23T00:24:36.851Z,0
2017-01-23T00:25:45.842Z,0
2017-01-23T00:26:54.820Z,0
2017-01-23T00:28:03.808Z,0
2017-01-23T00:29:12.816Z,0
2017-01-23T00:30:21.807Z,0
2017-01-23T00:31:30.791Z,0
2017-01-23T00:32:39.783Z,0
2017-01-23T00:33:48.762Z,0
2017-01-23T00:34:57.763Z,0
2017-01-23T00:36:06.739Z,0
2017-01-23T00:37:15.734Z,0
2017-01-23T00:38:24.742Z,0
2017-01-23T00:39:33.724Z,0
2017-01-23T00:40:42.702Z,0
2017-01-23T00:41:51.692Z,0
2017-01-23T00:43:00.682Z,0
2017-01-23T00:44:09.674Z,0
2017-01-23T00:45:18.666Z,0
2017-01-23T00:46:27.646Z,0
2017-01-23T00:47:36.637Z,0
2017-01-23T00:48:45.626Z,0
2017-01-23T00:49:54.602Z,0
2017-01-23T00:51:03.590Z,0
2017-01-23T00:52:12.581Z,0
2017-01-23T00:53:21.574Z,0
2017-01-23T00:54:30.565Z,0
2017-01-23T00:55:39.584Z,0
2017-01-23T00:56:48.558Z,0
2017-01-23T00:57:57.547Z,0
2017-01-23T00:59:06.531Z,0
2017-01-23T01:00:15.514Z,0
2017-01-23T01:01:24.497Z,0
2017-01-23T01:02:33.490Z,0
2017-01-23T01:03:42.492Z,0
2017-01-23T01:04:51.493Z,0
2017-01-23T01:06:00.482Z,0
2017-01-23T01:07:09.483Z,0
2017-01-23T01:08:18.474Z,0
2017-01-23T01:09:27.463Z,0
2017-01-23T01:10:36.441Z,0
2017-01-23T01:11:45.423Z,0
2017-01-23T01:12:54.412Z,0
2017-01-23T01:14:03.398Z,0
2017-01-23T01:15:12.440Z,0
2017-01-23T01:16:21.420Z,0
2017-01-23T01:17:30.407Z,0
2017-01-23T01:18:39.407Z,0
2017-01-23T01:19:48.383Z,0
2017-01-23T01:20:57.392Z,0
2017-01-23T01:22:06.386Z,0
2017-01-23T01:23:15.383Z,0
2017-01-23T01:24:24.362Z,0
2017-01-23T01:25:33.340Z,0
2017-01-23T01:26:42.310Z,0
2017-01-23T01:27:51.310Z,0
2017-01-23T01:29:00.291Z,0
2017-01-23T01:30:09.692Z,0
2017-01-23T01:31:18.701Z,0
2017-01-23T01:32:27.680Z,0
2017-01-23T01:33:36.667Z,0
2017-01-23T01:34:45.648Z,0
2017-01-23T01:35:54.640Z,0
2017-01-23T01:37:03.615Z,0
2017-01-23T01:38:12.601Z,0
2017-01-23T01:39:21.579Z,0
2017-01-23T01:40:30.568Z,0
2017-01-23T01:41:39.560Z,0
2017-01-23T01:42:48.567Z,0
2017-01-23T01:43:57.550Z,0
2017-01-23T01:45:06.535Z,0
2017-01-23T01:46:15.526Z,0
2017-01-23T01:47:24.513Z,0
2017-01-23T01:48:33.504Z,0
2017-01-23T01:49:42.485Z,0
2017-01-23T01:50:51.468Z,0
2017-01-23T01:52:00.450Z,0
2017-01-23T01:53:09.433Z,0
2017-01-23T01:54:18.415Z,0
2017-01-23T01:55:27.391Z,0
2017-01-23T01:56:36.384Z,0
2017-01-23T01:57:45.370Z,0
2017-01-23T01:58:54.356Z,0
2017-01-23T02:00:03.324Z,0
2017-01-23T02:01:12.321Z,0
2017-01-23T02:02:21.298Z,0
2017-01-23T02:03:30.289Z,0
2017-01-23T02:04:39.267Z,0
2017-01-23T02:05:48.265Z,0
2017-01-23T02:06:57.239Z,0
2017-01-23T02:08:06.328Z,0
2017-01-23T02:09:15.295Z,0
2017-01-23T02:10:24.277Z,0
2017-01-23T02:11:33.275Z,0
2017-01-23T02:12:42.261Z,0
2017-01-23T02:13:51.284Z,0
2017-01-23T02:15:00.270Z,0
2017-01-23T02:16:09.263Z,0
2017-01-23T02:17:18.249Z,0
2017-01-23T02:18:27.268Z,0
2017-01-23T02:19:36.262Z,0
2017-01-23T02:20:45.245Z,0
2017-01-23T02:21:54.229Z,0
2017-01-23T02:23:03.216Z,0
2017-01-23T02:24:12.194Z,0
2017-01-23T02:25:21.179Z,0
2017-01-23T02:26:30.177Z,0
2017-01-23T02:27:39.157Z,0
2017-01-23T02:28:48.128Z,0
2017-01-23T02:29:57.124Z,0
2017-01-23T02:31:06.102Z,0
2017-01-23T02:32:15.098Z,0
2017-01-23T02:33:24.080Z,0
2017-01-23T02:34:33.062Z,0
2017-01-23T02:35:42.036Z,0
2017-01-23T02:36:51.028Z,0
2017-01-23T02:38:00.017Z,0
2017-01-23T02:39:09.005Z,0
2017-01-23T02:40:17.999Z,0
2017-01-23T02:41:26.979Z,0
2017-01-23T02:42:35.965Z,0
2017-01-23T02:43:44.981Z,0
2017-01-23T02:44:53.950Z,0
2017-01-23T02:46:02.935Z,0
2017-01-23T02:47:11.909Z,0
2017-01-23T02:48:20.897Z,0
2017-01-23T02:49:29.870Z,0
2017-01-23T02:50:38.861Z,0
2017-01-23T02:51:47.848Z,0
2017-01-23T02:52:56.998Z,0
2017-01-23T02:54:05.975Z,0
2017-01-23T02:55:14.947Z,0
2017-01-23T02:56:23.921Z,0
2017-01-23T02:57:32.911Z,0
2017-01-23T02:58:41.910Z,0
2017-01-23T02:59:50.884Z,0
2017-01-23T03:00:59.876Z,0
2017-01-23T03:02:08.851Z,0
2017-01-23T03:03:17.839Z,0
2017-01-23T03:04:26.826Z,0
2017-01-23T03:05:35.824Z,0
2017-01-23T03:06:44.809Z,0
2017-01-23T03:07:53.804Z,0
2017-01-23T03:09:02.794Z,0
2017-01-23T03:10:11.763Z,0
2017-01-23T03:11:20.763Z,0
2017-01-23T03:12:29.744Z,0
2017-01-23T03:13:38.722Z,0
2017-01-23T03:14:47.709Z,0
2017-01-23T03:15:56.689Z,0
2017-01-23T03:17:05.678Z,0
2017-01-23T03:18:14.666Z,0
2017-01-23T03:19:23.655Z,0
2017-01-23T03:20:32.647Z,0
2017-01-23T03:21:41.646Z,0
2017-01-23T03:22:50.678Z,0
2017-01-23T03:23:59.661Z,0
2017-01-23T03:25:08.653Z,0
2017-01-23T03:26:17.631Z,0
2017-01-23T03:27:26.618Z,0
2017-01-23T03:28:35.595Z,0
2017-01-23T03:29:44.584Z,0
2017-01-23T03:30:53.557Z,0
2017-01-23T03:32:02.543Z,0
2017-01-23T03:33:11.542Z,0
2017-01-23T03:34:20.518Z,0
2017-01-23T03:35:29.501Z,0
2017-01-23T03:36:38.485Z,0
2017-01-23T03:37:47.468Z,0
2017-01-23T03:38:56.448Z,0
2017-01-23T03:40:05.854Z,0
2017-01-23T03:41:14.834Z,0
2017-01-23T03:42:23.800Z,0
2017-01-23T03:43:32.804Z,0
2017-01-23T03:44:41.778Z,0
2017-01-23T03:45:50.770Z,0
2017-01-23T03:46:59.750Z,0
2017-01-23T03:48:08.729Z,0
2017-01-23T03:49:17.717Z,0
2017-01-23T03:50:26.708Z,0
2017-01-23T03:51:35.684Z,0
2017-01-23T03:52:44.927Z,0
2017-01-23T03:53:54.022Z,0
2017-01-23T03:55:02.997Z,0
2017-01-23T03:56:11.992Z,0
2017-01-23T03:57:20.975Z,0
2017-01-23T03:58:29.955Z,0
2017-01-23T03:59:38.930Z,0
2017-01-23T04:00:47.918Z,0
2017-01-23T04:01:56.908Z,0
2017-01-23T04:03:05.902Z,0
2017-01-23T04:04:14.881Z,0
2017-01-23T04:05:23.854Z,0
2017-01-23T04:06:32.839Z,0
2017-01-23T04:07:41.836Z,0
2017-01-23T04:08:50.825Z,0
2017-01-23T04:09:59.797Z,0
2017-01-23T04:11:08.774Z,0
2017-01-23T04:12:17.756Z,0
2017-01-23T04:13:26.748Z,0
2017-01-23T04:14:35.735Z,0
2017-01-23T04:15:44.725Z,0
2017-01-23T04:16:53.698Z,0
2017-01-23T04:18:02.676Z,0
2017-01-23T04:19:11.657Z,0
2017-01-23T04:20:20.636Z,0
2017-01-23T04:21:29.621Z,0
2017-01-23T04:22:38.601Z,0
2017-01-23T04:23:47.588Z,0
2017-01-23T04:24:56.584Z,0
2017-01-23T04:26:05.561Z,0
2017-01-23T04:27:14.542Z,0
2017-01-23T04:28:23.525Z,0
2017-01-23T04:29:32.500Z,0
2017-01-23T04:30:41.478Z,0
2017-01-23T04:31:50.467Z,0
2017-01-23T04:32:59.446Z,0
2017-01-23T04:34:08.426Z,0
2017-01-23T04:35:17.409Z,0
2017-01-23T04:36:26.391Z,0
2017-01-23T04:37:35.382Z,0
2017-01-23T04:38:44.360Z,0
2017-01-23T04:39:53.341Z,0
2017-01-23T04:41:02.336Z,0
2017-01-23T04:42:11.337Z,0
2017-01-23T04:43:20.318Z,0
2017-01-23T04:44:29.300Z,0
2017-01-23T04:45:38.281Z,0
2017-01-23T04:46:47.257Z,0
2017-01-23T04:47:56.257Z,0
2017-01-23T04:49:05.244Z,0
2017-01-23T04:50:14.238Z,0
2017-01-23T04:51:23.242Z,0
2017-01-23T04:52:32.212Z,0
2017-01-23T04:53:41.201Z,0
2017-01-23T04:54:50.195Z,0
2017-01-23T04:55:59.188Z,0
2017-01-23T04:57:08.172Z,0
2017-01-23T04:58:17.158Z,0
2017-01-23T04:59:26.136Z,0
2017-01-23T05:00:35.117Z,0
2017-01-23T05:01:44.104Z,0
2017-01-23T05:02:53.091Z,0
2017-01-23T05:04:02.079Z,0
2017-01-23T05:05:11.086Z,0
2017-01-23T05:06:20.078Z,0
2017-01-23T05:07:29.050Z,0
2017-01-23T05:08:38.045Z,0
2017-01-23T05:09:47.042Z,0
2017-01-23T05:10:56.035Z,0
2017-01-23T05:12:05.023Z,0
2017-01-23T05:13:13.996Z,0
2017-01-23T05:14:22.981Z,0
2017-01-23T05:15:31.963Z,0
2017-01-23T05:16:40.952Z,0
2017-01-23T05:17:49.923Z,0
2017-01-23T05:18:58.899Z,0
2017-01-23T05:20:07.886Z,0
2017-01-23T05:21:16.874Z,0
2017-01-23T05:22:25.860Z,0
2017-01-23T05:23:34.846Z,0
2017-01-23T05:24:43.817Z,0
2017-01-23T05:25:52.807Z,0
2017-01-23T05:27:01.796Z,0
2017-01-23T05:28:10.775Z,0
2017-01-23T05:29:19.757Z,0
2017-01-23T05:30:28.745Z,0
2017-01-23T05:31:37.727Z,0
2017-01-23T05:32:46.717Z,0
2017-01-23T05:33:55.699Z,0
2017-01-23T05:35:04.704Z,0
2017-01-23T05:36:13.683Z,0
2017-01-23T05:37:22.673Z,0
2017-01-23T05:38:31.659Z,0
2017-01-23T05:39:40.634Z,0
2017-01-23T05:40:49.623Z,0
2017-01-23T05:41:58.603Z,0
2017-01-23T05:43:07.589Z,0
2017-01-23T05:44:16.601Z,0
2017-01-23T05:45:25.582Z,0
2017-01-23T05:46:34.554Z,0
2017-01-23T05:47:43.534Z,0
2017-01-23T05:48:52.523Z,0
2017-01-23T05:50:01.509Z,0
2017-01-23T05:51:10.502Z,0
2017-01-23T05:52:19.477Z,0
2017-01-23T05:53:28.460Z,0
2017-01-23T05:54:37.446Z,0
2017-01-23T05:55:46.445Z,0
2017-01-23T05:56:55.420Z,0
2017-01-23T05:58:04.405Z,0
2017-01-23T05:59:13.402Z,0
2017-01-23T06:00:22.390Z,0
2017-01-23T06:01:31.364Z,0
2017-01-23T06:02:40.354Z,0
2017-01-23T06:03:49.336Z,0
2017-01-23T06:04:58.324Z,0
2017-01-23T06:06:07.307Z,4
2017-01-23T06:07:16.275Z,0
2017-01-23T06:08:25.276Z,0
2017-01-23T06:09:34.257Z,0
2017-01-23T06:10:43.236Z,0
2017-01-23T06:11:52.229Z,0
2017-01-23T06:13:01.198Z,0
2017-01-23T06:14:10.192Z,0
2017-01-23T06:15:19.200Z,0
2017-01-23T06:16:28.191Z,0
2017-01-23T06:17:37.173Z,0
2017-01-23T06:18:46.163Z,0
2017-01-23T06:19:55.137Z,0
2017-01-23T06:21:04.117Z,0
2017-01-23T06:22:13.119Z,0
2017-01-23T06:23:22.100Z,0
2017-01-23T06:24:31.079Z,0
2017-01-23T06:25:40.080Z,0
2017-01-23T06:26:49.058Z,0
2017-01-23T06:27:58.038Z,0
2017-01-23T06:29:07.046Z,0
2017-01-23T06:30:16.039Z,0
2017-01-23T06:31:25.012Z,0
2017-01-23T06:32:33.989Z,0
2017-01-23T06:33:42.975Z,0
2017-01-23T06:34:51.962Z,0
2017-01-23T06:36:00.951Z,0
2017-01-23T06:37:09.929Z,0
2017-01-23T06:38:18.910Z,0
2017-01-23T06:39:27.899Z,0
2017-01-23T06:40:36.876Z,0
2017-01-23T06:41:45.856Z,0
2017-01-23T06:42:54.838Z,0
2017-01-23T06:44:03.820Z,0
2017-01-23T06:45:12.795Z,0
2017-01-23T06:46:21.787Z,0
2017-01-23T06:47:30.773Z,0
2017-01-23T06:48:39.765Z,4
2017-01-23T06:49:48.777Z,4
2017-01-23T06:50:57.756Z,4
2017-01-23T06:52:06.746Z,4
2017-01-23T06:53:15.721Z,4
2017-01-23T06:54:24.707Z,0
2017-01-23T06:55:33.692Z,0
2017-01-23T06:56:42.678Z,0
2017-01-23T06:57:51.660Z,4
2017-01-23T06:59:00.629Z,4
2017-01-23T07:00:09.626Z,4
2017-01-23T07:01:18.623Z,4
2017-01-23T07:02:27.607Z,4
2017-01-23T07:03:37.005Z,4
2017-01-23T07:04:45.982Z,8
2017-01-23T07:05:54.973Z,4
2017-01-23T07:07:03.958Z,4
2017-01-23T07:08:12.943Z,8
2017-01-23T07:09:21.918Z,8
2017-01-23T07:10:30.902Z,8
2017-01-23T07:11:39.902Z,8
2017-01-23T07:12:48.887Z,8
2017-01-23T07:13:57.903Z,8
2017-01-23T07:15:06.897Z,8
2017-01-23T07:16:15.889Z,12
2017-01-23T07:17:24.870Z,12
2017-01-23T07:18:33.857Z,8
2017-01-23T07:19:42.864Z,12
2017-01-23T07:20:51.837Z,12
2017-01-23T07:22:00.837Z,12
2017-01-23T07:23:09.863Z,16
2017-01-23T07:24:18.844Z,16
2017-01-23T07:25:27.842Z,12
2017-01-23T07:26:36.825Z,16
2017-01-23T07:27:45.799Z,16
2017-01-23T07:28:54.781Z,20
2017-01-23T07:30:03.785Z,20
2017-01-23T07:31:12.811Z,20
2017-01-23T07:32:21.794Z,20
2017-01-23T07:33:30.778Z,20
2017-01-23T07:34:39.754Z,24
2017-01-23T07:35:48.750Z,24
2017-01-23T07:36:57.769Z,24
2017-01-23T07:38:06.757Z,20
2017-01-23T07:39:15.760Z,24
2017-01-23T07:40:24.745Z,24
2017-01-23T07:41:33.726Z,24
2017-01-23T07:42:42.725Z,28
2017-01-23T07:43:51.720Z,28
2017-01-23T07:45:00.694Z,24
2017-01-23T07:46:09.682Z,28
2017-01-23T07:47:18.700Z,28
2017-01-23T07:48:27.681Z,32
2017-01-23T07:49:36.676Z,32
2017-01-23T07:50:45.663Z,32
2017-01-23T07:51:55.591Z,32
2017-01-23T07:53:04.658Z,32
2017-01-23T07:54:13.637Z,36
2017-01-23T07:55:22.629Z,36
2017-01-23T07:56:31.614Z,40
2017-01-23T07:57:40.586Z,40
2017-01-23T07:58:49.579Z,40
2017-01-23T07:59:58.574Z,36
2017-01-23T08:01:07.560Z,36
2017-01-23T08:02:16.545Z,36
2017-01-23T08:03:25.530Z,40
2017-01-23T08:04:34.520Z,40
2017-01-23T08:05:43.502Z,44
2017-01-23T08:06:52.499Z,48
2017-01-23T08:08:01.566Z,48
2017-01-23T08:09:10.565Z,48
2017-01-23T08:10:19.545Z,52
2017-01-23T08:11:28.521Z,52
2017-01-23T08:12:37.508Z,52
2017-01-23T08:13:46.505Z,56
2017-01-23T08:14:55.490Z,52
2017-01-23T08:16:04.471Z,56
2017-01-23T08:17:13.452Z,60
2017-01-23T08:18:22.452Z,60
2017-01-23T08:19:31.458Z,56
2017-01-23T08:20:40.455Z,60
2017-01-23T08:21:49.434Z,60
2017-01-23T08:22:58.419Z,56
2017-01-23T08:24:07.406Z,64
2017-01-23T08:25:16.399Z,64
2017-01-23T08:26:25.389Z,64
2017-01-23T08:27:34.377Z,68
2017-01-23T08:28:43.369Z,64
2017-01-23T08:29:52.351Z,68
2017-01-23T08:31:01.345Z,68
2017-01-23T08:32:10.336Z,72
2017-01-23T08:33:19.331Z,68
2017-01-23T08:34:28.335Z,72
2017-01-23T08:35:37.312Z,72
2017-01-23T08:36:46.307Z,72
2017-01-23T08:37:55.301Z,72
2017-01-23T08:39:04.289Z,72
2017-01-23T08:40:13.269Z,72
2017-01-23T08:41:22.250Z,80
2017-01-23T08:42:31.234Z,80
2017-01-23T08:43:40.243Z,76
2017-01-23T08:44:49.246Z,80
2017-01-23T08:45:58.220Z,92
2017-01-23T08:47:07.205Z,88
2017-01-23T08:48:16.182Z,88
2017-01-23T08:49:25.172Z,88
2017-01-23T08:50:34.165Z,96
2017-01-23T08:51:43.186Z,96
2017-01-23T08:52:52.253Z,92
2017-01-23T08:54:01.246Z,96
2017-01-23T08:55:10.242Z,92
2017-01-23T08:56:19.235Z,96
2017-01-23T08:57:28.227Z,92
2017-01-23T08:58:37.208Z,96
2017-01-23T08:59:46.199Z,100
2017-01-23T09:00:55.182Z,100
2017-01-23T09:02:04.207Z,100
2017-01-23T09:03:13.194Z,104
2017-01-23T09:04:22.185Z,104
2017-01-23T09:05:31.167Z,100
2017-01-23T09:06:40.144Z,104
2017-01-23T09:07:49.120Z,104
2017-01-23T09:08:58.120Z,108
2017-01-23T09:10:07.115Z,112
2017-01-23T09:11:16.092Z,112
2017-01-23T09:12:25.080Z,108
2017-01-23T09:13:34.073Z,108
2017-01-23T09:14:43.088Z,104
2017-01-23T09:15:52.088Z,112
2017-01-23T09:17:01.093Z,112
2017-01-23T09:18:10.074Z,120
2017-01-23T09:19:19.054Z,128
2017-01-23T09:20:28.038Z,124
2017-01-23T09:21:37.140Z,120
2017-01-23T09:22:46.482Z,112
2017-01-23T09:23:55.460Z,116
2017-01-23T09:25:04.434Z,124
2017-01-23T09:26:13.422Z,124
2017-01-23T09:27:22.418Z,128
2017-01-23T09:28:31.399Z,124
2017-01-23T09:29:40.388Z,128
2017-01-23T09:30:49.360Z,124
2017-01-23T09:31:58.339Z,128
2017-01-23T09:33:07.323Z,136
2017-01-23T09:34:16.317Z,140
2017-01-23T09:35:25.285Z,132
2017-01-23T09:36:34.256Z,132
2017-01-23T09:37:43.242Z,140
2017-01-23T09:38:52.228Z,140
2017-01-23T09:40:01.223Z,136
2017-01-23T09:41:10.201Z,136
2017-01-23T09:42:19.181Z,132
2017-01-23T09:43:28.155Z,132
2017-01-23T09:44:37.140Z,132
2017-01-23T09:45:46.122Z,128
2017-01-23T09:46:55.109Z,124
2017-01-23T09:48:04.089Z,128
2017-01-23T09:49:13.083Z,128
2017-01-23T09:50:22.068Z,132
2017-01-23T09:51:31.053Z,140
2017-01-23T09:52:40.034Z,136
2017-01-23T09:53:49.007Z,132
2017-01-23T09:54:57.994Z,136
2017-01-23T09:56:06.982Z,140
2017-01-23T09:57:15.975Z,136
2017-01-23T09:58:24.950Z,140
2017-01-23T09:59:33.947Z,148
2017-01-23T10:00:42.923Z,148
2017-01-23T10:01:51.902Z,148
2017-01-23T10:03:00.895Z,144
2017-01-23T10:04:09.871Z,140
2017-01-23T10:05:18.859Z,136
2017-01-23T10:06:27.843Z,136
2017-01-23T10:07:36.819Z,140
2017-01-23T10:08:45.810Z,140
2017-01-23T10:09:54.788Z,140
2017-01-23T10:11:03.788Z,136
2017-01-23T10:12:12.757Z,136
2017-01-23T10:13:21.741Z,132
2017-01-23T10:14:30.723Z,136
2017-01-23T10:15:39.709Z,132
2017-01-23T10:16:48.699Z,136
2017-01-23T10:17:57.691Z,128
2017-01-23T10:19:06.662Z,132
2017-01-23T10:20:15.630Z,128
2017-01-23T10:21:24.613Z,128
2017-01-23T10:22:33.602Z,132
2017-01-23T10:23:42.595Z,124
2017-01-23T10:24:51.612Z,132
2017-01-23T10:26:00.607Z,128
2017-01-23T10:27:09.595Z,132
2017-01-23T10:28:18.579Z,136
2017-01-23T10:29:27.562Z,136
2017-01-23T10:30:36.573Z,136
2017-01-23T10:31:45.550Z,128
2017-01-23T10:32:54.529Z,128
2017-01-23T10:34:03.504Z,128
2017-01-23T10:35:12.493Z,124
2017-01-23T10:36:21.462Z,128
2017-01-23T10:37:30.461Z,120
2017-01-23T10:38:39.459Z,116
2017-01-23T10:39:48.439Z,112
2017-01-23T10:40:57.449Z,112
2017-01-23T10:42:06.430Z,116
2017-01-23T10:43:15.413Z,112
2017-01-23T10:44:24.395Z,112
2017-01-23T10:45:33.386Z,116
2017-01-23T10:46:42.366Z,116
2017-01-23T10:47:51.350Z,116
2017-01-23T10:49:00.331Z,116
2017-01-23T10:50:09.723Z,116
2017-01-23T10:51:18.703Z,116
2017-01-23T10:52:28.019Z,120
2017-01-23T10:53:37.000Z,116
2017-01-23T10:54:45.992Z,116
2017-01-23T10:55:54.990Z,116
2017-01-23T10:57:03.977Z,120
2017-01-23T10:58:12.952Z,120
2017-01-23T10:59:21.946Z,120
2017-01-23T11:00:30.927Z,120
2017-01-23T11:01:39.899Z,120
2017-01-23T11:02:48.922Z,112
2017-01-23T11:03:57.920Z,116
2017-01-23T11:05:06.889Z,116
2017-01-23T11:06:15.869Z,116
2017-01-23T11:07:24.856Z,120
2017-01-23T11:08:33.846Z,124
2017-01-23T11:09:42.823Z,124
2017-01-23T11:10:51.845Z,120
2017-01-23T11:12:00.825Z,128
2017-01-23T11:13:09.819Z,148
2017-01-23T11:14:18.797Z,156
2017-01-23T11:15:27.776Z,164
2017-01-23T11:16:36.766Z,156
2017-01-23T11:17:45.762Z,152
2017-01-23T11:18:54.745Z,144
2017-01-23T11:20:03.742Z,144
2017-01-23T11:21:12.708Z,140
2017-01-23T11:22:21.694Z,132
2017-01-23T11:23:30.675Z,136
2017-01-23T11:24:39.666Z,128
2017-01-23T11:25:48.643Z,128
2017-01-23T11:26:57.613Z,124
2017-01-23T11:28:06.601Z,124
2017-01-23T11:29:15.580Z,128
2017-01-23T11:30:24.576Z,128
2017-01-23T11:31:33.557Z,124
2017-01-23T11:32:42.532Z,124
2017-01-23T11:33:51.503Z,136
2017-01-23T11:35:00.493Z,144
2017-01-23T11:36:09.498Z,144
2017-01-23T11:37:18.497Z,156
2017-01-23T11:38:27.481Z,156
2017-01-23T11:39:36.456Z,140
2017-01-23T11:40:45.443Z,144
2017-01-23T11:41:54.443Z,140
2017-01-23T11:43:03.433Z,140
2017-01-23T11:44:12.413Z,132
2017-01-23T11:45:21.396Z,132
2017-01-23T11:46:30.377Z,132
2017-01-23T11:47:39.375Z,132
2017-01-23T11:48:48.354Z,136
2017-01-23T11:49:57.342Z,132
2017-01-23T11:51:06.326Z,132
2017-01-23T11:52:15.298Z,136
2017-01-23T11:53:24.290Z,132
2017-01-23T11:54:33.274Z,124
2017-01-23T11:55:42.258Z,128
2017-01-23T11:56:51.252Z,116
2017-01-23T11:58:00.227Z,116
2017-01-23T11:59:09.204Z,108
2017-01-23T12:00:18.192Z,112
2017-01-23T12:01:27.183Z,108
2017-01-23T12:02:36.163Z,108
2017-01-23T12:03:45.149Z,100
2017-01-23T12:04:54.123Z,100
2017-01-23T12:06:03.111Z,104
2017-01-23T12:07:12.097Z,96
2017-01-23T12:08:21.079Z,96
2017-01-23T12:09:30.058Z,104
2017-01-23T12:10:39.042Z,100
2017-01-23T12:11:48.032Z,100
2017-01-23T12:12:57.017Z,132
2017-01-23T12:14:06.016Z,136
2017-01-23T12:15:14.994Z,132
2017-01-23T12:16:23.970Z,124
2017-01-23T12:17:32.991Z,124
2017-01-23T12:18:41.986Z,112
2017-01-23T12:19:50.971Z,112
2017-01-23T12:20:59.948Z,108
2017-01-23T12:22:08.931Z,116
2017-01-23T12:23:17.913Z,116
2017-01-23T12:24:26.884Z,112
2017-01-23T12:25:35.864Z,120
2017-01-23T12:26:44.847Z,124
2017-01-23T12:27:53.832Z,120
2017-01-23T12:29:02.862Z,120
2017-01-23T12:30:11.840Z,112
2017-01-23T12:31:20.824Z,108
2017-01-23T12:32:29.800Z,104
2017-01-23T12:33:39.165Z,92
2017-01-23T12:34:48.215Z,92
2017-01-23T12:35:57.206Z,88
2017-01-23T12:37:06.184Z,96
2017-01-23T12:38:15.160Z,104
2017-01-23T12:39:24.145Z,128
2017-01-23T12:40:33.165Z,112
2017-01-23T12:41:42.143Z,120
2017-01-23T12:42:51.136Z,112
2017-01-23T12:44:00.116Z,124
2017-01-23T12:45:09.107Z,120
2017-01-23T12:46:18.091Z,108
2017-01-23T12:47:27.069Z,128
2017-01-23T12:48:36.056Z,128
2017-01-23T12:49:45.044Z,120
2017-01-23T12:50:54.031Z,112
2017-01-23T12:52:03.008Z,104
2017-01-23T12:53:11.989Z,108
2017-01-23T12:54:20.974Z,100
2017-01-23T12:55:29.956Z,96
2017-01-23T12:56:38.941Z,84
2017-01-23T12:57:50.304Z,88
2017-01-23T12:58:59.311Z,100
2017-01-23T13:00:08.298Z,96
2017-01-23T13:01:17.314Z,76
2017-01-23T13:02:26.300Z,96
2017-01-23T13:03:35.288Z,100
2017-01-23T13:04:44.280Z,96
2017-01-23T13:05:53.876Z,96
2017-01-23T13:07:03.034Z,88
2017-01-23T13:08:12.949Z,84
2017-01-23T13:09:22.499Z,80
2017-01-23T13:10:31.640Z,84
2017-01-23T13:11:40.815Z,88
2017-01-23T13:12:49.885Z,84
2017-01-23T13:13:58.927Z,80
2017-01-23T13:15:07.964Z,76
2017-01-23T13:16:17.226Z,84
2017-01-23T13:17:26.667Z,84
2017-01-23T13:18:36.031Z,84
2017-01-23T13:19:45.180Z,76
2017-01-23T13:20:55.708Z,76
2017-01-23T13:22:05.383Z,76
2017-01-23T13:23:14.454Z,72
2017-01-23T13:24:23.478Z,68
2017-01-23T13:25:32.520Z,68
2017-01-23T13:26:41.915Z,68
2017-01-23T13:27:50.912Z,68
2017-01-23T13:28:59.901Z,68
2017-01-23T13:30:08.987Z,68
2017-01-23T13:31:18.130Z,64
2017-01-23T13:32:27.574Z,60
2017-01-23T13:33:36.610Z,60
2017-01-23T13:34:45.617Z,56
2017-01-23T13:35:54.765Z,60
2017-01-23T13:37:03.834Z,64
2017-01-23T13:38:12.828Z,60
2017-01-23T13:39:21.816Z,64
2017-01-23T13:40:32.208Z,56
2017-01-23T13:41:43.640Z,56
2017-01-23T13:42:52.711Z,56
2017-01-23T13:44:01.683Z,56
2017-01-23T13:45:10.660Z,48
2017-01-23T13:46:19.644Z,52
2017-01-23T13:47:28.880Z,52
2017-01-23T13:48:37.875Z,52
2017-01-23T13:49:46.909Z,56
2017-01-23T13:50:55.921Z,52
2017-01-23T13:52:04.896Z,52
2017-01-23T13:53:13.890Z,52
2017-01-23T13:54:22.874Z,52
2017-01-23T13:55:32.085Z,48
2017-01-23T13:56:41.061Z,48
2017-01-23T13:57:50.234Z,48
2017-01-23T13:58:59.235Z,44
2017-01-23T14:00:08.226Z,40
2017-01-23T14:01:17.266Z,44
2017-01-23T14:02:26.357Z,44
2017-01-23T14:03:35.347Z,44
2017-01-23T14:04:44.800Z,44
2017-01-23T14:05:54.199Z,44
2017-01-23T14:07:03.283Z,40
2017-01-23T14:08:12.308Z,44
2017-01-23T14:09:21.312Z,40
2017-01-23T14:10:30.294Z,36
2017-01-23T14:11:41.502Z,36
2017-01-23T14:13:22.368Z,36
2017-01-23T14:14:32.006Z,40
2017-01-23T14:15:40.979Z,40
2017-01-23T14:16:50.070Z,44
2017-01-23T14:17:59.079Z,44
2017-01-23T14:19:08.075Z,40
2017-01-23T14:20:17.070Z,40
2017-01-23T14:21:26.063Z,36
2017-01-23T14:22:35.371Z,36
2017-01-23T14:23:48.259Z,36
2017-01-23T14:25:28.985Z,36
2017-01-23T14:26:38.798Z,32
2017-01-23T14:27:49.912Z,36
2017-01-23T14:28:59.442Z,36
2017-01-23T14:30:08.627Z,32
2017-01-23T14:31:17.949Z,28
2017-01-23T14:32:26.946Z,32
2017-01-23T14:33:36.225Z,28
2017-01-23T14:34:45.848Z,32
2017-01-23T14:35:55.086Z,28
2017-01-23T14:37:04.075Z,28
2017-01-23T14:38:13.215Z,28
2017-01-23T14:39:22.303Z,28
2017-01-23T14:40:31.291Z,28
2017-01-23T14:41:40.326Z,20
2017-01-23T14:42:49.318Z,20
2017-01-23T14:43:58.319Z,20
2017-01-23T14:45:07.295Z,20
2017-01-23T14:46:16.264Z,20
2017-01-23T14:47:25.376Z,24
2017-01-23T14:48:34.378Z,24
2017-01-23T14:49:43.378Z,24
2017-01-23T14:50:52.393Z,20
2017-01-23T14:52:01.452Z,24
2017-01-23T14:53:11.101Z,20
2017-01-23T14:54:20.355Z,24
2017-01-23T14:55:29.611Z,20
2017-01-23T14:56:38.955Z,20
2017-01-23T14:57:48.173Z,16
2017-01-23T14:58:57.535Z,16
2017-01-23T15:00:06.960Z,16
2017-01-23T15:01:16.087Z,12
2017-01-23T15:02:25.125Z,16
2017-01-23T15:03:34.124Z,16
2017-01-23T15:04:43.605Z,12
2017-01-23T15:05:52.698Z,16
2017-01-23T15:07:01.915Z,12
2017-01-23T15:08:11.000Z,12
2017-01-23T15:09:20.584Z,12
2017-01-23T15:10:29.878Z,12
2017-01-23T15:11:39.099Z,12
2017-01-23T15:12:48.472Z,12
2017-01-23T15:13:57.469Z,8
2017-01-23T15:15:06.783Z,12
2017-01-23T15:16:16.168Z,8
2017-01-23T15:17:25.171Z,8
2017-01-23T15:18:34.169Z,8
2017-01-23T15:19:43.187Z,8
2017-01-23T15:20:52.188Z,8
2017-01-23T15:22:01.170Z,8
2017-01-23T15:23:10.169Z,4
2017-01-23T15:24:19.151Z,4
2017-01-23T15:25:28.141Z,8
2017-01-23T15:26:37.132Z,8
2017-01-23T15:27:46.255Z,4
2017-01-23T15:28:55.344Z,4
2017-01-23T15:30:04.343Z,4
2017-01-23T15:31:13.337Z,4
2017-01-23T15:32:22.340Z,4
2017-01-23T15:33:31.460Z,4
2017-01-23T15:34:40.451Z,4
2017-01-23T15:35:49.438Z,4
2017-01-23T15:36:58.432Z,4
2017-01-23T15:38:07.467Z,4
2017-01-23T15:39:17.011Z,4
2017-01-23T15:40:26.163Z,4
2017-01-23T15:41:35.299Z,4
2017-01-23T15:42:44.282Z,4
2017-01-23T15:43:53.270Z,4
2017-01-23T15:45:02.407Z,4
2017-01-23T15:46:11.402Z,4
2017-01-23T15:47:20.380Z,4
2017-01-23T15:48:29.375Z,0
2017-01-23T15:49:38.369Z,0
2017-01-23T15:50:47.418Z,0
2017-01-23T15:51:56.431Z,0
2017-01-23T15:53:05.471Z,0
2017-01-23T15:54:14.487Z,0
2017-01-23T15:55:23.533Z,0
2017-01-23T15:56:32.594Z,4
2017-01-23T15:57:42.501Z,4
2017-01-23T15:58:51.664Z,4
2017-01-23T16:00:00.912Z,4
2017-01-23T16:01:11.432Z,4
2017-01-23T16:02:20.437Z,4
2017-01-23T16:03:29.435Z,4
2017-01-23T16:04:38.451Z,4
2017-01-23T16:05:47.455Z,4
2017-01-23T16:06:56.600Z,4
2017-01-23T16:08:05.600Z,4
2017-01-23T16:09:14.772Z,4
2017-01-23T16:10:24.136Z,4
2017-01-23T16:11:33.160Z,4
2017-01-23T16:12:42.165Z,0
2017-01-23T16:13:51.163Z,4
2017-01-23T16:15:00.154Z,4
2017-01-23T16:16:09.311Z,4
2017-01-23T16:17:18.748Z,4
2017-01-23T16:18:27.822Z,4
2017-01-23T16:19:37.030Z,4
2017-01-23T16:20:47.018Z,4
2017-01-23T16:21:56.130Z,4
2017-01-23T16:23:05.599Z,4
2017-01-23T16:24:14.621Z,4
2017-01-23T16:25:23.672Z,4
2017-01-23T16:26:32.671Z,4
2017-01-23T16:27:41.684Z,4
2017-01-23T16:28:50.686Z,4
2017-01-23T16:29:59.666Z,4
2017-01-23T16:31:08.694Z,4
2017-01-23T16:32:17.698Z,4
2017-01-23T16:33:26.682Z,4
2017-01-23T16:34:35.682Z,4
2017-01-23T16:35:44.663Z,4